createdAt,value
2023-03-28T00:00:29.500Z,99427.53
2023-03-28T00:03:01.640Z,99415.03
2023-03-28T00:05:33.370Z,99420.44
2023-03-28T00:08:05.121Z,99424.78
2023-03-28T00:10:37.370Z,99425.34
2023-03-28T00:13:09.128Z,99430.84
2023-03-28T00:15:42.615Z,99429.34
2023-03-28T00:18:15.072Z,99428.69
2023-03-28T00:20:45.804Z,99437.75
2023-03-28T00:23:18.038Z,99436.94
2023-03-28T00:25:50.022Z,99440.59
2023-03-28T00:28:22.019Z,99442.53
2023-03-28T00:30:53.974Z,99439.81
2023-03-28T00:33:26.005Z,99447.00
2023-03-28T00:35:59.011Z,99450.44
2023-03-28T00:38:33.256Z,99450.88
2023-03-28T00:41:07.228Z,99455.91
2023-03-28T00:43:43.691Z,99456.62
2023-03-28T00:46:22.284Z,99461.38
2023-03-28T00:48:58.277Z,99440.53
2023-03-28T00:51:34.397Z,99465.94
2023-03-28T00:54:08.603Z,99467.53
2023-03-28T00:56:42.329Z,99475.16
2023-03-28T00:59:19.862Z,99463.25
2023-03-28T01:01:52.660Z,99482.41
2023-03-28T01:04:27.080Z,99482.53
2023-03-28T01:06:59.828Z,99491.91
2023-03-28T01:09:33.464Z,99488.19
2023-03-28T01:12:05.654Z,99474.81
2023-03-28T01:14:40.501Z,99485.41
2023-03-28T01:17:14.189Z,99472.16
2023-03-28T01:20:00.103Z,99488.97
2023-03-28T01:22:58.018Z,99490.75
2023-03-28T01:25:57.594Z,99491.88
2023-03-28T01:28:39.082Z,99499.56
2023-03-28T01:31:32.363Z,99496.06
2023-03-28T01:34:45.781Z,99497.84
2023-03-28T01:37:43.377Z,99490.87
2023-03-28T01:40:39.253Z,99495.03
2023-03-28T01:43:13.702Z,99490.00
2023-03-28T01:45:52.380Z,99505.47
2023-03-28T01:48:58.771Z,99488.47
2023-03-28T01:51:51.799Z,99495.66
2023-03-28T01:54:35.713Z,99498.31
2023-03-28T01:57:15.248Z,99486.03
2023-03-28T01:59:55.585Z,99499.81
2023-03-28T02:02:40.676Z,99500.44
2023-03-28T02:05:18.130Z,99496.91
2023-03-28T02:07:53.046Z,99505.41
2023-03-28T02:10:28.511Z,99506.81
2023-03-28T02:13:05.996Z,99500.09
2023-03-28T02:15:43.014Z,99515.28
2023-03-28T02:18:21.450Z,99518.69
2023-03-28T02:21:01.719Z,99510.75
2023-03-28T02:23:41.224Z,99514.41
2023-03-28T02:26:13.630Z,99525.09
2023-03-28T02:28:46.837Z,99528.63
2023-03-28T02:31:19.191Z,99526.22
2023-03-28T02:33:52.501Z,99529.00
2023-03-28T02:36:45.471Z,99541.13
2023-03-28T02:39:20.540Z,99535.16
2023-03-28T02:42:10.328Z,99540.16
2023-03-28T02:44:51.285Z,99536.00
2023-03-28T02:47:36.040Z,99549.03
2023-03-28T02:50:35.259Z,99544.72
2023-03-28T02:53:18.834Z,99546.50
2023-03-28T02:56:08.796Z,99548.06
2023-03-28T02:58:59.043Z,99541.97
2023-03-28T03:01:32.175Z,99553.91
2023-03-28T03:04:04.098Z,99551.81
2023-03-28T03:06:37.544Z,99550.66
2023-03-28T03:09:08.896Z,99553.84
2023-03-28T03:11:43.033Z,99553.97
2023-03-28T03:14:14.657Z,99560.00
2023-03-28T03:16:46.710Z,99565.16
2023-03-28T03:19:20.681Z,99560.09
2023-03-28T03:21:53.138Z,99572.09
2023-03-28T03:24:25.990Z,99581.25
2023-03-28T03:27:01.891Z,99579.38
2023-03-28T03:29:38.969Z,99584.41
2023-03-28T03:32:17.228Z,99589.31
2023-03-28T03:34:49.322Z,99584.69
2023-03-28T03:37:21.618Z,99590.47
2023-03-28T03:39:52.880Z,99590.25
2023-03-28T03:42:30.334Z,99592.56
2023-03-28T03:45:01.946Z,99585.47
2023-03-28T03:47:35.101Z,99584.56
2023-03-28T03:50:08.346Z,99584.47
2023-03-28T03:52:40.975Z,99592.91
2023-03-28T03:55:12.326Z,99588.34
2023-03-28T03:57:44.458Z,99579.59
2023-03-28T04:00:15.722Z,99590.31
2023-03-28T04:02:51.367Z,99583.00
2023-03-28T04:05:24.119Z,99594.59
2023-03-28T04:08:02.550Z,99592.41
2023-03-28T04:10:35.254Z,99598.72
2023-03-28T04:13:06.646Z,99602.66
2023-03-28T04:15:38.970Z,99603.25
2023-03-28T04:18:12.815Z,99604.75
2023-03-28T04:20:44.402Z,99612.13
2023-03-28T04:23:21.707Z,99611.87
2023-03-28T04:26:01.095Z,99609.12
2023-03-28T04:28:41.004Z,99584.47
2023-03-28T04:31:13.283Z,99608.62
2023-03-28T04:34:06.241Z,99614.38
2023-03-28T04:36:39.007Z,99608.19
2023-03-28T04:39:10.836Z,99612.37
2023-03-28T04:41:42.462Z,99617.16
2023-03-28T04:44:15.944Z,99618.00
2023-03-28T04:46:49.678Z,99611.41
2023-03-28T04:49:22.228Z,99615.31
2023-03-28T04:51:55.636Z,99615.06
2023-03-28T04:54:28.338Z,99615.53
2023-03-28T04:57:06.101Z,99619.81
2023-03-28T04:59:40.427Z,99610.25
2023-03-28T05:02:12.406Z,99612.97
2023-03-28T05:04:45.077Z,99622.84
2023-03-28T05:07:17.830Z,99619.00
2023-03-28T05:09:50.771Z,99630.25
2023-03-28T05:12:22.858Z,99628.25
2023-03-28T05:14:55.969Z,99633.84
2023-03-28T05:17:28.147Z,99636.75
2023-03-28T05:20:00.317Z,99636.03
2023-03-28T05:22:35.203Z,99633.75
2023-03-28T05:25:09.134Z,99638.41
2023-03-28T05:27:42.575Z,99631.75
2023-03-28T05:30:15.689Z,99627.78
2023-03-28T05:32:47.720Z,99630.56
2023-03-28T05:35:20.210Z,99630.38
2023-03-28T05:37:52.803Z,99632.59
2023-03-28T05:40:24.237Z,99638.38
2023-03-28T05:42:56.588Z,99650.22
2023-03-28T05:45:28.993Z,99645.34
2023-03-28T05:48:01.103Z,99648.88
2023-03-28T05:50:33.071Z,99640.88
2023-03-28T05:53:04.548Z,99646.84
2023-03-28T05:55:36.736Z,99644.22
2023-03-28T05:58:09.012Z,99655.78
2023-03-28T06:00:39.932Z,99657.25
2023-03-28T06:03:16.577Z,99664.50
2023-03-28T06:05:50.186Z,99667.41
2023-03-28T06:08:22.584Z,99667.59
2023-03-28T06:10:54.636Z,99667.97
2023-03-28T06:13:27.190Z,99669.03
2023-03-28T06:15:58.688Z,99683.19
2023-03-28T06:18:32.798Z,99683.50
2023-03-28T06:21:04.983Z,99683.56
2023-03-28T06:23:36.660Z,99680.50
2023-03-28T06:26:22.863Z,99690.59
2023-03-28T06:28:53.990Z,99689.28
2023-03-28T06:31:24.488Z,99692.78
2023-03-28T06:33:55.313Z,99685.16
2023-03-28T06:36:27.250Z,99690.78
2023-03-28T06:38:59.182Z,99691.38
2023-03-28T06:41:31.527Z,99697.72
2023-03-28T06:44:04.230Z,99695.31
2023-03-28T06:46:38.578Z,99691.31
2023-03-28T06:49:09.940Z,99694.44
2023-03-28T06:51:42.110Z,99694.97
2023-03-28T06:54:14.053Z,99695.63
2023-03-28T06:56:47.050Z,99688.13
2023-03-28T06:59:18.797Z,99691.69
2023-03-28T07:01:51.847Z,99687.94
2023-03-28T07:04:22.630Z,99696.81
2023-03-28T07:06:54.488Z,99697.53
2023-03-28T07:09:25.786Z,99692.12
2023-03-28T07:11:58.695Z,99688.25
2023-03-28T07:14:30.540Z,99693.41
2023-03-28T07:17:02.178Z,99703.69
2023-03-28T07:19:34.839Z,99700.34
2023-03-28T07:22:05.500Z,99702.66
2023-03-28T07:24:39.555Z,99696.13
2023-03-28T07:27:15.562Z,99699.47
2023-03-28T07:29:48.442Z,99707.34
2023-03-28T07:32:19.322Z,99705.53
2023-03-28T07:34:51.622Z,99701.91
2023-03-28T07:37:23.835Z,99706.81
2023-03-28T07:39:57.704Z,99717.59
2023-03-28T07:42:30.220Z,99714.44
2023-03-28T07:45:01.296Z,99711.31
2023-03-28T07:47:34.015Z,99718.59
2023-03-28T07:50:06.829Z,99719.97
2023-03-28T07:52:38.857Z,99720.56
2023-03-28T07:55:09.913Z,99726.94
2023-03-28T07:57:41.957Z,99720.81
2023-03-28T08:00:14.453Z,99726.53
2023-03-28T08:02:48.728Z,99733.38
2023-03-28T08:05:19.784Z,99714.16
2023-03-28T08:07:50.696Z,99728.28
2023-03-28T08:10:22.538Z,99735.34
2023-03-28T08:12:55.059Z,99736.28
2023-03-28T08:15:27.025Z,99734.97
2023-03-28T08:17:59.344Z,99741.59
2023-03-28T08:20:30.805Z,99737.13
2023-03-28T08:23:04.864Z,99740.19
2023-03-28T08:25:40.835Z,99730.91
2023-03-28T08:28:12.924Z,99736.53
2023-03-28T08:30:43.656Z,99737.84
2023-03-28T08:33:14.613Z,99732.72
2023-03-28T08:35:45.876Z,99738.22
2023-03-28T08:38:19.395Z,99744.81
2023-03-28T08:41:02.641Z,99733.03
2023-03-28T08:43:46.549Z,99732.34
2023-03-28T08:46:22.825Z,99730.12
2023-03-28T08:48:57.238Z,99722.62
2023-03-28T08:51:32.714Z,99723.50
2023-03-28T08:54:09.356Z,99725.81
2023-03-28T08:56:47.545Z,99726.13
2023-03-28T08:59:23.442Z,99717.41
2023-03-28T09:01:54.778Z,99721.97
2023-03-28T09:04:38.694Z,99728.31
2023-03-28T09:07:22.597Z,99715.47
2023-03-28T09:10:21.652Z,99724.22
2023-03-28T09:13:03.747Z,99716.50
2023-03-28T09:15:43.596Z,99714.44
2023-03-28T09:18:20.627Z,99718.69
2023-03-28T09:21:07.522Z,99718.97
2023-03-28T09:24:05.989Z,99711.81
2023-03-28T09:26:46.195Z,99707.22
2023-03-28T09:29:22.425Z,99716.53
2023-03-28T09:32:01.264Z,99715.19
2023-03-28T09:34:39.115Z,99703.06
2023-03-28T09:37:20.271Z,99708.22
2023-03-28T09:39:54.017Z,99700.78
2023-03-28T09:42:47.969Z,99713.78
2023-03-28T09:45:43.735Z,99696.50
2023-03-28T09:48:33.861Z,99696.25
2023-03-28T09:51:07.694Z,99703.34
2023-03-28T09:53:40.410Z,99701.03
2023-03-28T09:56:35.329Z,99698.91
2023-03-28T09:59:24.162Z,99699.59
2023-03-28T10:01:57.654Z,99707.47
2023-03-28T10:04:38.957Z,99708.84
2023-03-28T10:07:20.221Z,99717.66
2023-03-28T10:09:56.019Z,99714.84
2023-03-28T10:12:37.291Z,99717.34
2023-03-28T10:15:28.926Z,99713.19
2023-03-28T10:18:08.970Z,99714.53
2023-03-28T10:20:43.148Z,99711.03
2023-03-28T10:23:15.953Z,99709.66
2023-03-28T10:25:52.303Z,99706.97
2023-03-28T10:28:32.854Z,99708.53
2023-03-28T10:31:07.233Z,99708.06
2023-03-28T10:33:45.160Z,99711.09
2023-03-28T10:36:30.570Z,99709.47
2023-03-28T10:39:21.222Z,99702.50
2023-03-28T10:41:56.535Z,99709.19
2023-03-28T10:44:32.814Z,99701.84
2023-03-28T10:47:08.224Z,99707.78
2023-03-28T10:49:48.353Z,99701.63
2023-03-28T10:52:48.394Z,99695.87
2023-03-28T10:55:27.630Z,99698.91
2023-03-28T10:58:06.785Z,99699.50
2023-03-28T11:00:42.534Z,99703.13
2023-03-28T11:03:26.681Z,99705.19
2023-03-28T11:06:09.472Z,99698.91
2023-03-28T11:08:59.615Z,99707.72
2023-03-28T11:11:54.943Z,99704.41
2023-03-28T11:14:37.981Z,99701.53
2023-03-28T11:17:32.035Z,99694.00
2023-03-28T11:20:30.126Z,99703.78
2023-03-28T11:23:25.068Z,99698.25
2023-03-28T11:26:23.469Z,99693.94
2023-03-28T11:29:13.421Z,99698.69
2023-03-28T11:32:17.422Z,99694.06
2023-03-28T11:34:59.076Z,99696.16
2023-03-28T11:37:33.916Z,99688.16
2023-03-28T11:40:31.600Z,99693.75
2023-03-28T11:43:07.734Z,99688.28
2023-03-28T11:45:52.703Z,99692.78
2023-03-28T11:48:25.638Z,99686.91
2023-03-28T11:51:22.258Z,99685.34
2023-03-28T11:54:02.248Z,99685.47
2023-03-28T11:56:54.783Z,99676.00
2023-03-28T11:59:53.607Z,99682.97
2023-03-28T12:02:42.756Z,99675.03
2023-03-28T12:05:26.857Z,99679.16
2023-03-28T12:08:05.609Z,99678.16
2023-03-28T12:10:39.543Z,99671.91
2023-03-28T12:13:46.061Z,99667.41
2023-03-28T12:16:26.923Z,99674.63
2023-03-28T12:19:02.638Z,99667.13
2023-03-28T12:21:44.702Z,99674.34
2023-03-28T12:24:44.110Z,99671.88
2023-03-28T12:27:41.254Z,99662.09
2023-03-28T12:30:33.713Z,99661.75
2023-03-28T12:33:26.844Z,99655.63
2023-03-28T12:36:18.703Z,99656.97
2023-03-28T12:39:05.632Z,99659.06
2023-03-28T12:41:41.454Z,99657.13
2023-03-28T12:44:23.126Z,99653.62
2023-03-28T12:47:03.023Z,99653.59
2023-03-28T12:49:53.158Z,99649.66
2023-03-28T12:52:27.340Z,99629.81
2023-03-28T12:55:02.322Z,99648.13
2023-03-28T12:57:45.172Z,99650.25
2023-03-28T13:00:35.361Z,99654.06
2023-03-28T13:03:36.664Z,99651.09
2023-03-28T13:06:38.260Z,99632.50
2023-03-28T13:09:25.052Z,99640.81
2023-03-28T13:12:09.661Z,99644.03
2023-03-28T13:14:42.775Z,99646.97
2023-03-28T13:17:35.845Z,99649.87
2023-03-28T13:20:22.185Z,99626.38
2023-03-28T13:23:02.984Z,99634.38
2023-03-28T13:25:36.911Z,99629.28
2023-03-28T13:28:30.815Z,99631.19
2023-03-28T13:31:09.044Z,99625.16
2023-03-28T13:33:48.084Z,99633.22
2023-03-28T13:36:24.463Z,99629.13
2023-03-28T13:39:10.998Z,99626.22
2023-03-28T13:41:44.948Z,99627.13
2023-03-28T13:44:17.845Z,99623.56
2023-03-28T13:46:51.463Z,99624.00
2023-03-28T13:49:45.267Z,99618.25
2023-03-28T13:52:17.248Z,99611.09
2023-03-28T13:54:54.899Z,99608.81
2023-03-28T13:57:27.829Z,99612.41
2023-03-28T14:00:02.377Z,99609.09
2023-03-28T14:02:47.584Z,99601.34
2023-03-28T14:05:25.145Z,99599.16
2023-03-28T14:08:02.550Z,99599.28
2023-03-28T14:10:35.975Z,99590.84
2023-03-28T14:13:13.069Z,99597.00
2023-03-28T14:15:45.996Z,99595.72
2023-03-28T14:18:22.810Z,99597.00
2023-03-28T14:20:57.593Z,99589.37
2023-03-28T14:23:37.861Z,99584.28
2023-03-28T14:26:23.494Z,99589.09
2023-03-28T14:28:59.152Z,99587.16
2023-03-28T14:31:34.330Z,99584.06
2023-03-28T14:34:25.602Z,99587.25
2023-03-28T14:37:00.276Z,99589.28
2023-03-28T14:39:36.021Z,99582.78
2023-03-28T14:42:09.699Z,99588.94
2023-03-28T14:44:46.216Z,99595.38
2023-03-28T14:47:28.153Z,99588.72
2023-03-28T14:50:01.368Z,99596.03
2023-03-28T14:52:42.122Z,99596.66
2023-03-28T14:55:21.088Z,99598.44
2023-03-28T14:57:55.699Z,99614.88
2023-03-28T15:00:36.675Z,99605.41
2023-03-28T15:03:14.931Z,99604.13
2023-03-28T15:05:50.375Z,99609.56
2023-03-28T15:08:40.103Z,99613.41
2023-03-28T15:11:33.659Z,99614.47
2023-03-28T15:14:31.322Z,99605.03
2023-03-28T15:17:03.280Z,99608.75
2023-03-28T15:22:28.945Z,99597.09
2023-03-28T15:25:01.491Z,99595.72
2023-03-28T15:27:36.691Z,99602.56
2023-03-28T15:30:16.010Z,99597.03
2023-03-28T15:32:49.274Z,99593.56
2023-03-28T15:35:40.158Z,99593.97
2023-03-28T15:38:21.695Z,99594.94
2023-03-28T15:41:06.403Z,99584.59
2023-03-28T15:44:00.213Z,99588.31
2023-03-28T15:46:35.148Z,99574.59
2023-03-28T15:49:07.457Z,99589.28
2023-03-28T15:51:58.210Z,99585.66
2023-03-28T15:54:32.409Z,99597.28
2023-03-28T15:57:04.293Z,99589.56
2023-03-28T15:59:40.497Z,99599.41
2023-03-28T16:02:32.639Z,99598.50
2023-03-28T16:05:09.046Z,99602.72
2023-03-28T16:07:48.537Z,99603.84
2023-03-28T16:10:22.675Z,99587.72
2023-03-28T16:13:00.506Z,99605.06
2023-03-28T16:15:33.449Z,99611.72
2023-03-28T16:18:05.704Z,99604.09
2023-03-28T16:20:37.407Z,99601.44
2023-03-28T16:23:09.421Z,99600.34
2023-03-28T16:25:42.823Z,99604.00
2023-03-28T16:28:21.135Z,99608.12
2023-03-28T16:30:54.326Z,99620.16
2023-03-28T16:33:26.681Z,99616.03
2023-03-28T16:35:59.674Z,99621.16
2023-03-28T16:38:31.177Z,99629.13
2023-03-28T16:41:03.659Z,99622.38
2023-03-28T16:43:35.499Z,99628.44
2023-03-28T16:46:06.649Z,99613.44
2023-03-28T16:48:38.485Z,99624.25
2023-03-28T16:51:10.217Z,99622.00
2023-03-28T16:53:40.247Z,99620.91
2023-03-28T16:56:12.864Z,99609.22
2023-03-28T16:58:42.719Z,99615.06
2023-03-28T17:01:20.293Z,99620.47
2023-03-28T17:03:54.035Z,99620.13
2023-03-28T17:06:26.639Z,99620.44
2023-03-28T17:08:59.067Z,99626.84
2023-03-28T17:11:31.654Z,99614.47
2023-03-28T17:14:03.080Z,99625.66
2023-03-28T17:16:35.498Z,99620.69
2023-03-28T17:19:06.888Z,99620.78
2023-03-28T17:21:38.871Z,99617.28
2023-03-28T17:24:12.181Z,99614.63
2023-03-28T17:26:44.132Z,99624.53
2023-03-28T17:29:17.272Z,99627.53
2023-03-28T17:31:47.252Z,99619.19
2023-03-28T17:34:18.107Z,99620.16
2023-03-28T17:36:51.720Z,99631.38
2023-03-28T17:39:23.900Z,99620.78
2023-03-28T17:41:55.817Z,99628.25
2023-03-28T17:44:27.841Z,99623.97
2023-03-28T17:47:01.566Z,99625.69
2023-03-28T17:49:33.881Z,99628.81
2023-03-28T17:52:05.482Z,99630.56
2023-03-28T17:54:36.856Z,99624.59
2023-03-28T17:57:09.190Z,99621.06
2023-03-28T17:59:41.230Z,99628.59
2023-03-28T18:02:13.670Z,99629.63
2023-03-28T18:04:47.551Z,99624.81
2023-03-28T18:07:18.952Z,99627.78
2023-03-28T18:09:50.609Z,99634.16
2023-03-28T18:12:22.163Z,99633.13
2023-03-28T18:14:54.235Z,99633.22
2023-03-28T18:17:25.787Z,99631.12
2023-03-28T18:19:56.776Z,99626.31
2023-03-28T18:22:28.978Z,99626.00
2023-03-28T18:25:01.119Z,99630.53
2023-03-28T18:27:33.324Z,99632.88
2023-03-28T18:30:08.091Z,99621.81
2023-03-28T18:32:39.827Z,99627.91
2023-03-28T18:35:12.376Z,99628.22
2023-03-28T18:37:45.014Z,99626.19
2023-03-28T18:40:17.872Z,99624.75
2023-03-28T18:42:51.394Z,99625.72
2023-03-28T18:45:24.369Z,99626.00
2023-03-28T18:47:55.057Z,99623.19
2023-03-28T18:50:28.518Z,99619.75
2023-03-28T18:53:00.123Z,99627.78
2023-03-28T18:55:31.748Z,99625.50
2023-03-28T18:58:05.365Z,99624.78
2023-03-28T19:00:37.772Z,99620.28
2023-03-28T19:03:11.203Z,99615.56
2023-03-28T19:05:41.963Z,99616.53
2023-03-28T19:08:13.640Z,99620.37
2023-03-28T19:10:47.906Z,99627.16
2023-03-28T19:13:18.783Z,99628.37
2023-03-28T19:15:58.935Z,99628.22
2023-03-28T19:18:31.096Z,99632.88
2023-03-28T19:21:03.540Z,99626.94
2023-03-28T19:23:37.580Z,99629.78
2023-03-28T19:26:11.808Z,99628.16
2023-03-28T19:28:42.031Z,99632.66
2023-03-28T19:31:15.560Z,99628.06
2023-03-28T19:33:47.573Z,99607.19
2023-03-28T19:36:19.409Z,99591.47
2023-03-28T19:38:50.338Z,99627.97
2023-03-28T19:41:25.670Z,99631.62
2023-03-28T19:43:58.275Z,99625.47
2023-03-28T19:46:34.028Z,99631.09
2023-03-28T19:49:07.850Z,99627.03
2023-03-28T19:51:39.552Z,99623.59
2023-03-28T19:54:10.586Z,99620.16
2023-03-28T19:56:42.866Z,99616.88
2023-03-28T19:59:12.096Z,99615.03
2023-03-28T20:01:42.913Z,99620.78
2023-03-28T20:04:14.462Z,99614.50
2023-03-28T20:06:46.331Z,99613.56
2023-03-28T20:09:18.479Z,99612.94
2023-03-28T20:11:50.949Z,99616.47
2023-03-28T20:14:22.428Z,99619.50
2023-03-28T20:16:54.923Z,99616.97
2023-03-28T20:19:27.254Z,99617.12
2023-03-28T20:21:58.946Z,99620.41
2023-03-28T20:24:30.440Z,99622.91
2023-03-28T20:27:01.918Z,99624.25
2023-03-28T20:29:33.808Z,99620.53
2023-03-28T20:32:08.011Z,99626.00
2023-03-28T20:34:40.686Z,99624.34
2023-03-28T20:37:15.454Z,99626.63
2023-03-28T20:39:49.340Z,99620.25
2023-03-28T20:42:21.044Z,99614.66
2023-03-28T20:44:50.539Z,99618.63
2023-03-28T20:47:23.457Z,99595.50
2023-03-28T20:49:59.745Z,99604.63
2023-03-28T20:52:31.402Z,99613.75
2023-03-28T20:55:02.657Z,99609.31
2023-03-28T20:57:41.746Z,99609.53
2023-03-28T21:00:15.577Z,99596.09
2023-03-28T21:02:54.560Z,99605.16
2023-03-28T21:05:28.193Z,99599.69
2023-03-28T21:08:00.569Z,99597.72
2023-03-28T21:10:34.059Z,99598.06
2023-03-28T21:13:05.717Z,99589.81
2023-03-28T21:15:36.943Z,99593.72
2023-03-28T21:18:10.500Z,99595.56
2023-03-28T21:20:42.534Z,99592.59
2023-03-28T21:23:16.993Z,99597.25
2023-03-28T21:25:50.108Z,99588.31
2023-03-28T21:28:21.851Z,99576.47
2023-03-28T21:31:12.767Z,99586.06
2023-03-28T21:33:44.853Z,99590.34
2023-03-28T21:36:18.328Z,99601.53
2023-03-28T21:38:50.766Z,99589.66
2023-03-28T21:41:23.752Z,99581.84
2023-03-28T21:43:55.900Z,99587.31
2023-03-28T21:46:28.842Z,99588.50
2023-03-28T21:48:59.584Z,99582.25
2023-03-28T21:51:32.357Z,99580.19
2023-03-28T21:54:03.576Z,99579.44
2023-03-28T21:56:35.504Z,99572.28
2023-03-28T21:59:08.033Z,99573.13
2023-03-28T22:01:39.937Z,99570.59
2023-03-28T22:04:10.876Z,99564.03
2023-03-28T22:06:42.381Z,99558.63
2023-03-28T22:09:13.909Z,99561.09
2023-03-28T22:11:45.375Z,99557.88
2023-03-28T22:14:16.930Z,99566.00
2023-03-28T22:16:48.879Z,99557.22
2023-03-28T22:19:21.637Z,99555.38
2023-03-28T22:21:52.925Z,99552.13
2023-03-28T22:24:25.393Z,99547.78
2023-03-28T22:26:58.493Z,99537.53
2023-03-28T22:29:29.762Z,99545.09
2023-03-28T22:32:01.197Z,99537.06
2023-03-28T22:34:32.425Z,99538.00
2023-03-28T22:37:03.701Z,99536.87
2023-03-28T22:39:35.633Z,99527.31
2023-03-28T22:42:08.174Z,99523.31
2023-03-28T22:44:39.767Z,99528.72
2023-03-28T22:47:10.657Z,99530.00
2023-03-28T22:49:42.426Z,99531.88
2023-03-28T22:52:14.344Z,99530.38
2023-03-28T22:54:46.138Z,99534.84
2023-03-28T22:57:17.605Z,99518.75
2023-03-28T22:59:51.237Z,99537.06
2023-03-28T23:02:22.804Z,99529.25
2023-03-28T23:04:55.182Z,99506.66
2023-03-28T23:07:25.712Z,99535.41
2023-03-28T23:09:56.958Z,99518.84
2023-03-28T23:12:27.897Z,99533.19
2023-03-28T23:14:59.777Z,99527.41
2023-03-28T23:17:31.191Z,99521.28
2023-03-28T23:20:03.517Z,99521.16
2023-03-28T23:22:34.543Z,99518.09
2023-03-28T23:25:06.183Z,99522.63
2023-03-28T23:27:37.313Z,99517.72
2023-03-28T23:30:10.401Z,99520.16
2023-03-28T23:32:41.064Z,99508.63
2023-03-28T23:35:12.145Z,99512.03
2023-03-28T23:37:45.586Z,99514.91
2023-03-28T23:40:16.583Z,99519.16
2023-03-28T23:42:47.273Z,99513.75
2023-03-28T23:45:19.607Z,99506.41
2023-03-28T23:47:51.306Z,99511.16
2023-03-28T23:50:23.731Z,99501.12
2023-03-28T23:52:54.918Z,99504.94
2023-03-28T23:55:28.032Z,99475.63
2023-03-28T23:58:03.332Z,99491.91
